Time;durP1;ratioP1;P1;durP2;ratioP2;P2;SDS_P1;SDS_P2;PMS_P1;PMS_P2;Temp;Humidity;BMP_temperature;BMP_pressure;BME280_temperature;BME280_humidity;BME280_pressure;Samples;Min_cycle;Max_cycle;Signal;HPM_P1;HPM_P2
2022/01/28 00:00:58;;;;;;;13.37;7.27;;;2.50;99.90;;;2.30;78.98;98745.00;5088001;28;20235;-39
2022/01/28 00:03:26;;;;;;;10.07;6.57;;;2.50;99.90;;;2.28;79.12;98742.44;5088549;28;20515;-39
2022/01/28 00:05:54;;;;;;;10.23;6.57;;;2.50;99.90;;;2.27;78.57;98753.91;5089671;28;20056;-40
2022/01/28 00:08:21;;;;;;;9.27;6.10;;;2.50;99.90;;;2.29;79.02;98744.16;5089549;28;20058;-39
2022/01/28 00:10:52;;;;;;;10.13;5.77;;;2.50;99.90;;;2.32;78.77;98730.84;5088652;28;20051;-39
2022/01/28 00:18:53;;;;;;;9.10;6.10;;;2.60;99.90;;;2.32;78.98;98753.66;5088361;28;20051;-36
2022/01/28 00:38:28;;;;;;;11.07;6.07;;;2.70;99.90;;;2.49;78.24;98789.53;5090621;28;20241;-40
2022/01/28 00:40:56;;;;;;;9.17;5.57;;;2.70;99.90;;;2.42;78.47;98794.25;5107244;28;20052;-40
2022/01/28 00:43:24;;;;;;;8.37;4.83;;;2.70;99.90;;;2.47;78.29;98791.41;5109564;28;20051;-40
2022/01/28 00:45:53;;;;;;;10.43;6.30;;;2.70;99.90;;;2.59;78.47;98780.22;5107705;28;20397;-40
2022/01/28 00:48:21;;;;;;;10.27;5.93;;;2.80;99.90;;;2.48;78.28;98790.47;5109521;28;20054;-40
2022/01/28 00:50:48;;;;;;;11.03;7.00;;;2.70;99.90;;;2.50;78.00;98799.13;5109502;28;20043;-40
2022/01/28 00:53:16;;;;;;;10.17;6.30;;;2.70;99.90;;;2.41;77.79;98792.59;5108442;28;20055;-39
2022/01/28 00:55:44;;;;;;;10.77;6.57;;;2.60;99.90;;;2.45;77.83;98788.03;5108423;28;20055;-39
2022/01/28 00:58:12;;;;;;;9.70;6.10;;;2.50;99.90;;;2.38;77.38;98787.47;5109396;28;20059;-39
2022/01/28 01:00:41;;;;;;;10.70;7.30;;;2.50;99.90;;;2.42;77.73;98796.91;5108646;28;20063;-39
2022/01/28 01:03:08;;;;;;;9.73;5.60;;;2.50;99.90;;;2.29;77.89;98809.00;5107705;28;20052;-39
2022/01/28 01:05:36;;;;;;;11.50;6.20;;;2.40;99.90;;;2.32;78.01;98806.22;5108887;28;20047;-39
2022/01/28 01:08:06;;;;;;;12.47;6.87;;;2.50;99.90;;;2.34;78.25;98793.84;5106373;28;20064;-39
2022/01/28 01:10:34;;;;;;;12.97;6.93;;;2.50;99.90;;;2.35;78.06;98800.81;5106892;28;20053;-39
2022/01/28 01:13:02;;;;;;;11.50;6.80;;;2.50;99.90;;;2.35;77.95;98799.00;5107396;28;20043;-39
2022/01/28 01:15:38;;;;;;;12.23;7.13;;;2.40;99.90;;;2.40;78.05;98805.81;5107288;28;20054;-39
2022/01/28 01:18:17;;;;;;;11.10;6.23;;;2.50;99.90;;;2.29;78.08;98806.38;5107859;28;20239;-40
2022/01/28 01:23:31;;;;;;;9.13;6.13;;;2.40;99.90;;;2.21;78.02;98812.03;5107528;28;20060;-40
2022/01/28 01:28:31;;;;;;;13.90;6.10;;;2.30;99.90;;;2.15;77.93;98820.22;5109232;28;20040;-40
2022/01/28 01:31:02;;;;;;;9.23;6.20;;;2.30;99.90;;;2.26;78.05;98815.25;5108589;28;20054;-39
2022/01/28 01:33:33;;;;;;;8.10;5.73;;;2.40;99.90;;;2.26;77.76;98814.41;5107680;28;20409;-39
2022/01/28 01:36:02;;;;;;;9.63;6.83;;;2.40;99.90;;;2.33;77.72;98827.16;5107134;28;20044;-38
2022/01/28 01:38:34;;;;;;;9.37;5.43;;;2.40;99.90;;;2.31;77.58;98828.19;5108192;28;20047;-39
2022/01/28 01:41:05;;;;;;;9.63;5.87;;;2.40;99.90;;;2.28;77.58;98838.84;5107927;28;20047;-39
2022/01/28 01:44:15;;;;;;;8.40;5.60;;;2.40;99.90;;;2.29;77.51;98843.19;5106493;28;20047;-39
2022/01/28 01:46:43;;;;;;;8.75;5.68;;;2.40;99.90;;;2.29;77.37;98853.69;5103255;28;20059;-39
2022/01/28 01:52:04;;;;;;;9.50;5.87;;;2.40;99.90;;;2.26;77.76;98849.41;5107312;28;20233;-39
2022/01/28 01:54:43;;;;;;;8.33;5.17;;;2.30;99.90;;;2.19;77.36;98860.31;5107927;28;20053;-40
2022/01/28 01:57:13;;;;;;;10.87;6.30;;;2.30;99.90;;;2.22;77.67;98860.19;5107518;28;20052;-39
2022/01/28 01:59:42;;;;;;;10.00;6.17;;;2.30;99.90;;;2.21;77.63;98864.59;5105708;28;20047;-39
2022/01/28 02:02:11;;;;;;;10.33;6.23;;;2.30;99.90;;;2.22;77.78;98868.91;5105944;28;20055;-39
2022/01/28 02:04:39;;;;;;;9.97;6.40;;;2.30;99.90;;;2.16;77.80;98872.69;5107235;28;20043;-40
2022/01/28 02:07:08;;;;;;;12.97;5.57;;;2.20;99.90;;;2.09;77.89;98888.84;5106738;28;20054;-39
2022/01/28 02:09:36;;;;;;;9.43;5.30;;;2.20;99.90;;;2.11;77.81;98879.97;5105912;28;20056;-39
2022/01/28 02:12:05;;;;;;;11.10;6.40;;;2.20;99.90;;;2.08;78.07;98869.63;5108318;28;20053;-39
2022/01/28 02:14:32;;;;;;;12.00;6.00;;;2.20;99.90;;;2.13;77.88;98878.13;5106098;28;20057;-40
2022/01/28 02:17:01;;;;;;;9.67;5.77;;;2.20;99.90;;;2.19;77.53;98874.34;5107399;28;20227;-40
2022/01/28 02:19:33;;;;;;;10.53;6.20;;;2.30;99.90;;;2.19;77.58;98879.59;5107590;28;20044;-40
2022/01/28 02:22:02;;;;;;;10.97;7.13;;;2.30;99.90;;;2.19;77.54;98869.09;5105220;28;20055;-40
2022/01/28 02:24:37;;;;;;;10.23;6.43;;;2.30;99.90;;;2.15;77.80;98873.66;5106732;28;20047;-40
2022/01/28 02:27:05;;;;;;;10.40;5.70;;;2.20;99.90;;;2.29;77.70;98879.97;5111762;28;20266;-40
2022/01/28 02:29:35;;;;;;;11.10;6.07;;;2.30;99.90;;;2.19;77.18;98886.59;5110894;28;20046;-40
2022/01/28 02:32:08;;;;;;;13.07;6.87;;;2.30;99.90;;;2.11;77.67;98879.97;5111602;28;20070;-40
2022/01/28 02:34:38;;;;;;;11.90;7.18;;;2.20;99.90;;;2.09;77.59;98887.06;5110866;28;20052;-40
2022/01/28 02:37:06;;;;;;;9.83;6.07;;;2.20;99.90;;;2.15;77.28;98894.66;5111918;28;20047;-40
2022/01/28 02:39:34;;;;;;;10.43;6.37;;;2.20;99.90;;;2.20;77.34;98891.78;5109716;28;20059;-40
2022/01/28 02:42:16;;;;;;;11.33;5.97;;;2.20;99.90;;;2.15;77.11;98899.91;5109952;28;20051;-40
2022/01/28 02:44:51;;;;;;;9.70;5.03;;;2.30;99.90;;;2.07;77.92;98894.16;5110267;28;20055;-40
2022/01/28 02:47:30;;;;;;;;;;;2.20;99.90;;;2.17;77.07;98899.81;5111725;28;20069;-40
2022/01/28 02:49:58;;;;;;;10.43;6.97;;;2.30;99.90;;;2.11;77.28;98905.38;5110505;28;19916;-40
2022/01/28 02:52:42;;;;;;;9.67;6.23;;;2.30;99.90;;;2.25;77.53;98902.06;5110137;28;20194;-40
2022/01/28 02:55:13;;;;;;;10.30;5.50;;;2.40;99.90;;;2.19;76.96;98907.63;5110328;28;20056;-40
2022/01/28 02:57:52;;;;;;;10.37;5.83;;;2.40;99.90;;;2.35;76.91;98911.19;5111357;28;20052;-40
2022/01/28 03:00:19;;;;;;;12.43;6.30;;;2.50;99.90;;;2.36;77.17;98911.13;5110175;28;20301;-40
2022/01/28 03:02:47;;;;;;;11.83;6.80;;;2.50;99.90;;;2.42;76.69;98904.66;5108558;28;20082;-40
2022/01/28 03:05:32;;;;;;;10.93;6.17;;;2.60;99.90;;;2.44;76.72;98905.44;5110630;28;20075;-40
2022/01/28 03:08:03;;;;;;;;;;;2.60;99.90;;;2.40;76.21;98910.94;5110929;28;20249;-40
2022/01/28 03:15:36;;;;;;;8.57;6.05;;;2.60;99.90;;;2.40;76.21;98905.69;5109864;28;20051;-40
2022/01/28 03:23:03;;;;;;;11.97;6.87;;;2.60;99.90;;;2.52;76.15;98921.69;5110186;28;20055;-40
2022/01/28 03:25:35;;;;;;;12.17;7.00;;;2.60;99.90;;;2.51;76.07;98917.34;5109637;28;20069;-40
2022/01/28 03:28:04;;;;;;;11.10;6.00;;;2.60;99.90;;;2.51;76.37;98916.50;5110054;28;20133;-40
2022/01/28 03:30:31;;;;;;;11.90;6.67;;;2.60;99.90;;;2.50;76.56;98914.78;5109268;28;20237;-40
2022/01/28 03:32:59;;;;;;;11.40;6.63;;;2.60;99.90;;;2.45;76.33;98909.78;5109354;28;20049;-40
2022/01/28 03:35:33;;;;;;;7.47;5.13;;;2.60;99.90;;;2.48;76.06;98904.38;5110287;28;20055;-39
2022/01/28 03:38:03;;;;;;;13.10;6.93;;;2.60;99.90;;;2.50;76.52;98899.88;5109871;28;20360;-40
2022/01/28 03:40:36;;;;;;;12.97;7.80;;;2.60;99.90;;;2.53;76.33;98918.09;5109345;28;20231;-37
2022/01/28 03:43:05;;;;;;;9.37;5.43;;;2.70;99.90;;;2.45;76.34;98917.66;5108668;28;20048;-37
2022/01/28 03:45:33;;;;;;;10.60;6.03;;;2.70;99.90;;;2.52;76.40;98920.81;5110121;28;20062;-37
2022/01/28 03:48:02;;;;;;;9.73;5.53;;;2.70;99.90;;;2.40;76.27;98917.03;5110050;28;20129;-37
2022/01/28 03:50:34;;;;;;;11.20;6.00;;;2.60;99.90;;;2.49;76.26;98919.19;5090876;28;20044;-37
2022/01/28 03:53:04;;;;;;;10.57;6.37;;;2.60;99.90;;;2.39;76.10;98922.41;5109407;28;20050;-37
2022/01/28 03:55:32;;;;;;;12.50;7.57;;;2.60;99.90;;;2.32;76.29;98945.50;5109283;28;20043;-37
2022/01/28 03:58:00;;;;;;;11.57;6.47;;;2.50;99.90;;;2.48;76.38;98924.53;5109818;28;20058;-37
2022/01/28 04:00:31;;;;;;;13.23;7.73;;;2.60;99.90;;;2.44;76.22;98944.84;5108402;28;20164;-37
2022/01/28 04:03:37;;;;;;;14.17;6.83;;;2.60;99.90;;;2.49;76.32;98948.13;5108119;28;20067;-37
2022/01/28 04:11:31;;;;;;;11.77;6.70;;;2.50;99.90;;;2.44;76.40;98946.66;5108012;28;20376;-37
2022/01/28 04:14:21;;;;;;;10.60;6.40;;;2.50;99.90;;;2.39;76.40;98949.53;5108654;28;20249;-37
2022/01/28 04:19:36;;;;;;;14.43;7.20;;;2.50;99.90;;;2.45;76.24;98956.25;5109656;28;20047;-37
2022/01/28 04:22:04;;;;;;;12.07;7.33;;;2.50;99.90;;;2.38;76.05;98960.94;5109047;28;20055;-37
2022/01/28 04:24:32;;;;;;;9.97;6.53;;;2.50;99.90;;;2.38;76.02;98962.75;5091562;28;20055;-37
2022/01/28 04:27:00;;;;;;;13.57;8.00;;;2.40;99.90;;;2.25;76.66;98965.13;5107714;28;20059;-37
2022/01/28 04:29:28;;;;;;;13.10;7.83;;;2.40;99.90;;;2.32;75.88;98970.00;5108511;28;20055;-37
2022/01/28 04:31:55;;;;;;;13.73;7.03;;;2.40;99.90;;;2.31;76.09;98983.22;5109803;28;20043;-37
2022/01/28 04:34:24;;;;;;;13.53;7.30;;;2.30;99.90;;;2.32;76.01;98971.78;5107329;28;20055;-37
2022/01/28 04:39:34;;;;;;;10.23;5.67;;;2.30;99.90;;;2.07;76.70;98996.63;5109113;28;20245;-37
2022/01/28 04:44:58;;;;;;;11.50;6.73;;;2.20;99.90;;;2.03;77.58;99047.63;5109387;28;20413;-37
2022/01/28 04:55:39;;;;;;;15.20;8.90;;;2.30;99.90;;;2.07;78.06;99043.91;5108136;28;20050;-37
2022/01/28 05:17:21;;;;;;;14.30;7.57;;;2.30;99.90;;;2.27;77.20;99031.59;5109085;28;20040;-36
2022/01/28 05:28:12;;;;;;;17.37;8.27;;;2.30;99.90;;;2.22;76.88;99038.88;5108044;28;20050;-36
2022/01/28 05:30:40;;;;;;;14.17;8.20;;;2.30;99.90;;;2.13;77.53;99040.16;5106982;28;20043;-36
2022/01/28 05:33:08;;;;;;;14.23;7.60;;;2.20;99.90;;;2.10;77.16;99049.03;5107963;28;20043;-36
2022/01/28 05:35:36;;;;;;;13.27;7.53;;;2.20;99.90;;;2.07;77.16;99038.66;5107888;28;20489;-36
2022/01/28 05:38:04;;;;;;;17.60;8.63;;;2.10;99.90;;;2.10;77.42;99035.91;5106373;28;20043;-36
2022/01/28 05:40:31;;;;;;;16.77;9.20;;;2.20;99.90;;;2.15;77.17;99041.78;5106412;28;20062;-36
2022/01/28 05:42:59;;;;;;;11.93;8.17;;;2.20;99.90;;;2.14;77.24;99037.44;5107058;28;20068;-36
2022/01/28 05:45:27;;;;;;;14.83;8.97;;;2.20;99.90;;;2.10;77.19;99041.16;5107626;28;20052;-36
2022/01/28 05:47:55;;;;;;;11.30;7.33;;;2.10;99.90;;;2.15;76.93;99051.44;5107700;28;20052;-36
2022/01/28 05:50:23;;;;;;;13.97;8.13;;;2.20;99.90;;;2.22;77.15;99039.72;5106792;28;20043;-36
2022/01/28 05:52:51;;;;;;;15.43;8.63;;;2.20;99.90;;;2.15;77.30;99044.44;5107354;28;20668;-36
2022/01/28 05:55:18;;;;;;;14.37;8.40;;;2.20;99.90;;;2.17;77.18;99052.22;5107256;28;20352;-36
2022/01/28 05:57:50;;;;;;;17.20;8.77;;;2.20;99.90;;;2.22;77.07;99044.97;5106692;28;20047;-36
2022/01/28 06:00:19;;;;;;;14.07;7.03;;;2.30;99.90;;;2.17;76.94;99075.84;5105244;28;20368;-36
2022/01/28 06:02:47;;;;;;;13.53;7.33;;;2.20;99.90;;;2.08;77.07;99065.81;5106991;28;20039;-36
2022/01/28 06:05:16;;;;;;;13.70;7.40;;;2.20;99.90;;;2.09;77.23;99073.59;5106619;28;20368;-36
2022/01/28 06:07:44;;;;;;;14.73;8.07;;;2.20;99.90;;;2.14;77.08;99066.34;5107461;28;20043;-36
2022/01/28 06:10:14;;;;;;;13.87;7.73;;;2.20;99.90;;;2.17;77.24;99096.88;5107629;28;20047;-36
2022/01/28 06:12:49;;;;;;;11.90;7.00;;;2.20;99.90;;;2.15;77.23;99098.72;5106122;28;20047;-36
2022/01/28 06:15:17;;;;;;;14.57;7.63;;;2.30;99.90;;;2.21;76.87;99115.97;5107236;28;20048;-36
2022/01/28 06:17:45;;;;;;;19.50;9.60;;;2.30;99.90;;;1.95;77.77;99113.66;5107403;28;20155;-36
2022/01/28 06:20:19;;;;;;;14.90;9.17;;;2.20;99.90;;;2.07;77.43;99114.00;5107114;28;20070;-36
2022/01/28 06:22:48;;;;;;;15.43;7.40;;;2.20;99.90;;;1.93;77.95;99117.28;5106961;28;20058;-36
2022/01/28 06:25:16;;;;;;;16.30;8.90;;;2.10;99.90;;;2.02;77.52;99124.75;5106002;28;20453;-36
2022/01/28 06:27:45;;;;;;;14.27;8.37;;;2.10;99.90;;;1.99;77.69;99110.91;5106795;28;20059;-36
2022/01/28 06:30:13;;;;;;;14.57;8.07;;;2.10;99.90;;;1.95;78.32;99133.81;5107411;28;20055;-36
2022/01/28 06:32:41;;;;;;;15.37;8.40;;;2.10;99.90;;;2.06;77.85;99128.94;5106747;28;20050;-36
2022/01/28 06:35:09;;;;;;;15.73;7.93;;;2.20;99.90;;;2.00;78.40;99142.34;5107051;28;20248;-36
2022/01/28 06:37:41;;;;;;;16.17;8.50;;;2.20;99.90;;;2.00;78.09;99150.22;5107200;28;20338;-36
2022/01/28 06:40:15;;;;;;;17.03;9.50;;;2.20;99.90;;;1.99;78.43;99151.13;5107219;28;20051;-36
2022/01/28 06:42:44;;;;;;;16.57;9.23;;;2.20;99.90;;;2.11;78.32;99147.97;5106249;28;20051;-37
2022/01/28 06:45:12;;;;;;;14.10;8.47;;;2.20;99.90;;;2.17;77.94;99149.44;5088364;28;20051;-37
2022/01/28 06:47:40;;;;;;;18.30;9.47;;;2.30;99.90;;;2.30;77.61;99147.09;5105747;28;20062;-36
2022/01/28 06:50:10;;;;;;;19.13;9.60;;;2.40;99.90;;;2.40;77.63;99142.25;5106711;28;20043;-36
2022/01/28 06:52:40;;;;;;;14.30;8.60;;;2.40;99.90;;;2.39;77.40;99140.56;5106404;28;20048;-36
2022/01/28 06:55:11;;;;;;;14.50;8.90;;;2.50;99.90;;;2.43;77.25;99150.84;5106546;28;20055;-37
2022/01/28 06:57:39;;;;;;;16.37;8.13;;;2.50;99.90;;;2.43;77.64;99147.38;5108175;28;20044;-37
2022/01/28 07:00:09;;;;;;;18.33;8.60;;;2.50;99.90;;;2.55;77.44;99159.91;5105736;28;20349;-37
2022/01/28 07:02:37;;;;;;;14.10;8.53;;;2.60;99.90;;;2.58;76.72;99151.91;5106935;28;20055;-37
2022/01/28 07:05:06;;;;;;;13.80;9.10;;;2.60;99.90;;;2.65;76.48;99160.31;5087765;28;20245;-37
2022/01/28 07:07:36;;;;;;;17.67;8.40;;;2.70;99.90;;;2.63;76.58;99160.41;5107185;28;20281;-37
2022/01/28 07:10:05;;;;;;;16.33;9.20;;;2.70;99.90;;;2.67;76.68;99161.09;5107566;28;20058;-36
2022/01/28 07:12:32;;;;;;;17.90;9.83;;;2.70;99.90;;;2.65;76.32;99170.84;5109100;28;20061;-39
2022/01/28 07:15:00;;;;;;;17.90;9.13;;;2.70;99.90;;;2.67;76.54;99167.19;5109288;28;20051;-40
2022/01/28 07:17:28;;;;;;;18.07;7.90;;;2.70;99.90;;;2.71;76.49;99163.50;5107969;28;20051;-40
2022/01/28 07:19:56;;;;;;;16.23;8.87;;;2.70;99.90;;;2.77;76.23;99162.34;5109079;28;20047;-40
2022/01/28 07:22:24;;;;;;;17.10;9.03;;;2.70;99.90;;;2.81;76.46;99168.31;5109090;28;20472;-40
2022/01/28 07:24:52;;;;;;;16.07;8.13;;;2.80;99.90;;;2.83;75.97;99175.22;5108863;28;20058;-40
2022/01/28 07:27:20;;;;;;;16.93;9.30;;;2.80;99.90;;;2.82;75.90;99165.63;5109620;28;20235;-40
2022/01/28 07:29:50;;;;;;;15.77;8.57;;;2.90;99.90;;;2.84;75.90;99168.19;5091903;28;20383;-39
2022/01/28 07:32:18;;;;;;;16.60;9.07;;;2.80;99.90;;;2.82;75.67;99175.28;5109952;28;20054;-36
2022/01/28 07:34:47;;;;;;;17.90;9.00;;;2.80;99.90;;;2.84;75.49;99174.28;5109821;28;20050;-36
2022/01/28 07:37:15;;;;;;;15.67;9.03;;;2.90;99.90;;;2.87;75.75;99182.03;5110085;28;20052;-36
2022/01/28 07:39:43;;;;;;;18.67;8.73;;;2.90;99.90;;;2.90;75.90;99183.66;5109178;28;20055;-36
2022/01/28 07:42:11;;;;;;;16.07;8.50;;;2.90;99.90;;;2.88;76.13;99183.72;5110089;28;20056;-36
2022/01/28 07:44:39;;;;;;;15.63;8.53;;;2.90;99.90;;;2.92;76.00;99203.69;5110029;28;20078;-37
2022/01/28 07:47:06;;;;;;;16.80;9.00;;;2.90;99.90;;;2.98;75.80;99206.94;5108893;28;20057;-36
2022/01/28 07:49:34;;;;;;;12.13;7.27;;;3.00;99.90;;;2.97;75.08;99208.75;5108056;28;20054;-36
2022/01/28 07:52:04;;;;;;;16.17;8.43;;;3.10;99.90;;;3.01;75.70;99199.75;5111406;28;20358;-36
2022/01/28 07:54:32;;;;;;;12.70;7.90;;;3.00;99.90;;;3.05;75.45;99203.94;5110040;28;20427;-37
2022/01/28 07:57:01;;;;;;;15.07;8.10;;;3.00;99.90;;;3.03;75.20;99202.31;5109317;28;20053;-40
2022/01/28 07:59:29;;;;;;;13.27;8.17;;;3.00;99.90;;;3.09;75.01;99208.13;5110072;28;20047;-40
2022/01/28 08:01:56;;;;;;;14.93;7.47;;;3.10;99.90;;;3.05;75.23;99209.22;5110759;28;20056;-40
2022/01/28 08:04:24;;;;;;;13.23;6.67;;;3.10;99.90;;;2.95;75.05;99215.84;5108644;28;20250;-40
2022/01/28 08:06:52;;;;;;;14.57;8.10;;;3.00;99.90;;;2.95;74.94;99210.59;5108363;28;20061;-39
2022/01/28 08:09:20;;;;;;;10.20;6.17;;;3.00;99.90;;;2.94;74.42;99204.47;5109508;28;20352;-39
2022/01/28 08:11:48;;;;;;;12.53;7.10;;;3.00;99.90;;;2.90;73.89;99217.84;5110271;28;20426;-40
2022/01/28 08:14:16;;;;;;;16.37;7.50;;;3.00;99.90;;;3.01;74.66;99210.28;5109152;28;20047;-40
2022/01/28 08:16:43;;;;;;;12.27;6.43;;;3.00;99.90;;;3.06;73.84;99215.31;5090631;28;20043;-39
2022/01/28 08:19:11;;;;;;;15.30;8.40;;;3.10;99.90;;;3.09;74.92;99218.66;5107499;28;20092;-40
2022/01/28 08:21:39;;;;;;;11.47;6.63;;;3.20;99.90;;;3.15;74.27;99228.03;5107412;28;20063;-40
2022/01/28 08:24:07;;;;;;;12.53;6.27;;;3.20;99.90;;;3.26;74.17;99230.16;5108786;28;20375;-40
2022/01/28 08:26:35;;;;;;;12.87;6.20;;;3.30;99.90;;;3.36;74.26;99239.28;5108711;28;20094;-40
2022/01/28 08:29:05;;;;;;;12.93;6.40;;;3.40;99.90;;;3.26;73.61;99238.88;5108796;28;20047;-40
2022/01/28 08:31:33;;;;;;;10.73;6.47;;;3.40;99.90;;;3.26;73.70;99238.88;5108439;28;20062;-39
2022/01/28 08:34:02;;;;;;;9.63;5.83;;;3.40;99.90;;;3.17;72.74;99241.97;5108141;28;20049;-39
2022/01/28 08:36:30;;;;;;;13.13;5.23;;;3.30;99.90;;;3.09;72.05;99250.22;5108154;28;20046;-39
2022/01/28 08:38:57;;;;;;;10.60;4.93;;;3.20;99.90;;;3.14;73.50;99252.63;5108001;28;20334;-39
2022/01/28 08:41:26;;;;;;;12.93;5.90;;;3.30;99.90;;;3.17;72.99;99270.91;5108313;27;20050;-40
2022/01/28 08:43:54;;;;;;;13.33;5.63;;;3.30;99.90;;;3.16;73.31;99266.59;5108853;28;20051;-40
2022/01/28 08:46:23;;;;;;;10.97;6.43;;;3.30;99.90;;;3.21;73.12;99266.34;5107515;28;20092;-40
2022/01/28 08:48:51;;;;;;;11.63;5.10;;;3.40;99.90;;;3.12;72.17;99268.50;5108213;28;20039;-40
2022/01/28 08:51:19;;;;;;;10.77;5.87;;;3.40;99.90;;;3.19;72.46;99270.84;5107834;28;20246;-40
2022/01/28 08:53:47;;;;;;;12.93;6.13;;;3.40;99.90;;;3.22;72.94;99270.69;5108209;28;20051;-40
2022/01/28 08:56:15;;;;;;;10.90;5.90;;;3.40;99.90;;;3.26;72.60;99273.09;5107398;28;20069;-40
2022/01/28 08:58:43;;;;;;;9.77;5.80;;;3.50;99.90;;;3.27;72.89;99279.22;5107131;28;20058;-40
2022/01/28 09:01:11;;;;;;;14.67;6.93;;;3.50;99.90;;;3.26;72.45;99281.00;5114159;27;20047;-40
2022/01/28 09:03:39;;;;;;;11.17;6.83;;;3.50;99.90;;;3.26;71.95;99281.00;5108068;27;20341;-40
2022/01/28 09:06:07;;;;;;;13.07;6.80;;;3.50;99.90;;;3.34;72.45;99262.19;5115984;27;20238;-40
2022/01/28 09:08:35;;;;;;;11.50;6.37;;;3.50;99.90;;;3.41;72.82;99263.56;5119836;27;20053;-37
2022/01/28 09:13:57;;;;;;;13.73;6.15;;;3.70;99.90;;;3.50;72.21;99271.00;5092088;27;20059;-36
2022/01/28 09:16:25;;;;;;;10.63;6.03;;;3.70;99.90;;;3.55;72.30;99266.38;5116307;27;20052;-37
2022/01/28 09:18:54;;;;;;;13.43;6.83;;;3.70;99.90;;;3.59;71.21;99261.81;5117152;27;20376;-37
2022/01/28 09:21:22;;;;;;;10.53;6.30;;;3.80;99.90;;;3.57;71.13;99270.69;5119908;27;20063;-37
2022/01/28 09:23:49;;;;;;;10.80;5.07;;;3.80;99.90;;;3.53;70.54;99256.88;5127526;27;20047;-37
2022/01/28 09:26:18;;;;;;;9.80;5.13;;;3.70;99.90;;;3.68;71.84;99266.63;5127381;27;20241;-37
2022/01/28 09:28:45;;;;;;;9.23;5.87;;;3.80;99.90;;;3.64;71.13;99272.94;5129235;27;20352;-37
2022/01/28 09:31:17;;;;;;;13.20;4.90;;;3.80;99.90;;;3.66;70.81;99289.53;5111389;27;20050;-37
2022/01/28 09:33:49;;;;;;;11.37;5.60;;;3.90;99.90;;;3.65;70.45;99290.47;5116736;28;20058;-37
2022/01/28 09:36:17;;;;;;;10.37;5.97;;;3.90;99.90;;;3.67;70.67;99290.41;5116064;28;20075;-37
2022/01/28 09:38:46;;;;;;;16.03;7.33;;;3.90;99.90;;;3.70;71.46;99299.00;5116715;28;20047;-37
2022/01/28 09:41:15;;;;;;;23.87;5.40;;;3.90;99.90;;;3.65;70.73;99305.44;5097820;28;20444;-37
2022/01/28 09:43:47;;;;;;;12.27;6.43;;;3.90;99.90;;;3.77;71.36;99307.44;5115155;28;20054;-37
2022/01/28 09:46:17;;;;;;;13.40;5.73;;;3.90;99.90;;;3.81;70.40;99292.34;5115554;28;20047;-36
2022/01/28 09:48:46;;;;;;;9.83;5.70;;;3.90;99.90;;;3.82;70.19;99294.91;5119533;28;20077;-37
2022/01/28 09:51:14;;;;;;;11.27;6.40;;;4.00;99.90;;;3.85;71.08;99289.44;5119880;28;20067;-36
2022/01/28 09:53:42;;;;;;;9.83;5.77;;;4.00;99.90;;;3.90;70.73;99284.81;5119058;28;20047;-36
2022/01/28 09:56:10;;;;;;;10.07;5.30;;;4.10;99.90;;;3.90;70.44;99295.34;5118234;28;20052;-36
2022/01/28 09:58:40;;;;;;;7.60;4.90;;;4.10;99.90;;;3.83;69.83;99308.91;5119062;28;20050;-36
2022/01/28 10:01:08;;;;;;;9.83;5.83;;;4.00;99.90;;;3.90;70.46;99299.78;5101665;28;20361;-37
2022/01/28 10:03:37;;;;;;;12.40;6.00;;;4.10;99.90;;;3.87;70.06;99308.66;5119440;28;20359;-37
2022/01/28 10:06:06;;;;;;;13.23;6.50;;;4.10;99.90;;;3.88;70.00;99309.53;5118502;28;20062;-37
2022/01/28 10:08:36;;;;;;;9.10;5.93;;;4.10;99.90;;;3.86;70.25;99308.78;5113219;28;20055;-37
2022/01/28 10:11:12;;;;;;;9.73;6.03;;;4.00;99.90;;;3.89;69.79;99304.16;5116539;28;20077;-37
2022/01/28 10:13:49;;;;;;;15.17;6.20;;;4.00;99.90;;;3.89;69.91;99295.41;5119338;28;20061;-37
2022/01/28 10:16:26;;;;;;;11.43;6.70;;;4.10;99.90;;;4.01;70.31;99299.19;5118590;28;20036;-37
2022/01/28 10:19:04;;;;;;;13.67;6.43;;;4.20;99.90;;;4.15;70.30;99299.34;5119106;28;20051;-37
2022/01/28 10:21:43;;;;;;;10.70;5.20;;;4.30;99.90;;;4.11;69.52;99289.88;5118898;28;20054;-39
2022/01/28 10:24:17;;;;;;;11.03;5.20;;;4.30;99.90;;;4.01;69.18;99291.28;5118550;28;20054;-37
2022/01/28 10:27:09;;;;;;;9.88;5.18;;;4.20;99.90;;;4.02;68.24;99293.00;5117062;28;20054;-37
2022/01/28 10:29:42;;;;;;;8.43;4.73;;;4.20;99.90;;;4.01;68.89;99299.19;5119323;28;20260;-37
2022/01/28 10:32:17;;;;;;;14.90;6.80;;;4.20;99.90;;;3.98;68.83;99294.94;5117902;28;20048;-37
2022/01/28 10:34:50;;;;;;;8.67;4.43;;;4.20;99.90;;;4.02;68.89;99301.75;5118835;28;20048;-37
2022/01/28 10:37:25;;;;;;;10.20;5.18;;;4.20;99.90;;;4.02;68.69;99290.38;5094929;28;20044;-37
2022/01/28 10:40:07;;;;;;;9.67;5.43;;;4.20;99.90;;;4.03;69.11;99290.31;5100032;28;20052;-37
2022/01/28 10:42:52;;;;;;;9.63;4.53;;;4.30;99.90;;;4.09;69.34;99291.75;5118329;28;20054;-37
2022/01/28 10:45:28;;;;;;;11.37;6.43;;;4.40;99.90;;;4.26;69.65;99290.88;5119916;28;20043;-37
2022/01/28 10:47:59;;;;;;;10.00;5.07;;;4.40;99.90;;;4.25;69.20;99284.75;5103156;28;20047;-37
2022/01/28 10:50:36;;;;;;;12.20;6.47;;;4.50;99.90;;;4.33;69.05;99293.09;5101610;28;20051;-37
2022/01/28 10:53:21;;;;;;;9.80;5.60;;;4.60;99.90;;;4.33;69.30;99286.97;5104016;28;20055;-37
2022/01/28 10:55:57;;;;;;;8.97;5.37;;;4.60;99.90;;;4.32;68.77;99283.50;5114708;27;20047;-40
2022/01/28 10:58:28;;;;;;;12.30;6.43;;;4.50;99.90;;;4.32;68.84;99287.91;5121792;27;20042;-40
2022/01/28 11:00:58;;;;;;;10.67;5.20;;;4.60;99.90;;;4.41;69.44;99289.22;5123280;28;20050;-37
2022/01/28 11:03:27;;;;;;;8.70;5.50;;;4.60;99.90;;;4.45;69.29;99290.75;5121934;28;20052;-37
2022/01/28 11:05:59;;;;;;;10.00;5.37;;;4.70;99.90;;;4.22;68.41;99289.31;5104839;28;20060;-37
2022/01/28 11:08:30;;;;;;;8.63;5.00;;;4.60;99.90;;;4.23;68.49;99291.03;5122201;28;20222;-37
2022/01/28 11:11:01;;;;;;;9.40;4.53;;;4.60;99.90;;;4.30;67.44;99310.84;5121527;28;20231;-37
2022/01/28 11:13:31;;;;;;;9.03;4.60;;;4.70;99.90;;;4.38;67.84;99302.53;5122845;28;20321;-37
2022/01/28 11:15:59;;;;;;;7.83;4.30;;;4.70;99.90;;;4.41;67.87;99305.88;5122452;28;20360;-38
2022/01/28 11:18:28;;;;;;;8.10;4.60;;;4.80;99.90;;;4.57;67.94;99308.53;5121754;28;20042;-37
2022/01/28 11:21:10;;;;;;;7.63;4.83;;;4.90;99.90;;;4.49;67.37;99295.75;5122065;28;20044;-37
2022/01/28 11:23:54;;;;;;;11.20;5.17;;;4.80;99.90;;;4.52;67.73;99298.25;5105576;28;20059;-37
2022/01/28 11:26:45;;;;;;;10.52;5.00;;;4.80;99.90;;;4.50;67.37;99308.03;5120940;27;20050;-36
2022/01/28 11:29:27;;;;;;;12.87;6.23;;;4.80;99.90;;;4.68;68.02;99302.69;5122365;28;20066;-37
2022/01/28 11:32:08;;;;;;;7.97;4.60;;;5.00;99.90;;;4.46;66.82;99301.22;5121659;28;20056;-36
2022/01/28 11:34:37;;;;;;;11.40;6.00;;;4.80;99.90;;;4.52;67.79;99300.88;5121615;28;20341;-37
2022/01/28 11:37:14;;;;;;;10.93;5.80;;;4.80;99.90;;;4.51;68.03;99300.97;5121679;28;20028;-37
2022/01/28 11:39:46;;;;;;;9.17;5.07;;;4.80;99.90;;;4.44;67.44;99289.91;5121362;28;20049;-37
2022/01/28 11:42:31;;;;;;;11.60;6.20;;;4.70;99.90;;;4.56;68.06;99293.66;5120787;28;20059;-37
2022/01/28 11:45:03;;;;;;;11.47;5.03;;;4.80;99.90;;;4.62;67.69;99288.03;5122158;28;20101;-37
2022/01/28 11:47:34;;;;;;;12.67;6.20;;;4.80;99.90;;;4.68;67.51;99289.50;5121770;28;20051;-37
2022/01/28 11:50:18;;;;;;;11.07;5.20;;;4.90;99.90;;;4.60;66.60;99291.72;5121718;28;20039;-37
2022/01/28 11:52:49;;;;;;;;;;;4.80;99.90;;;4.60;67.82;99289.91;5122560;28;20047;-37
2022/01/28 11:55:20;;;;;;;12.77;5.30;;;4.80;99.90;;;4.60;68.02;99282.00;5121620;28;19929;-37
2022/01/28 11:58:03;;;;;;;11.20;5.87;;;4.80;99.90;;;4.63;68.12;99273.91;5120984;28;20047;-37
2022/01/28 12:00:44;;;;;;;13.97;5.33;;;4.90;99.90;;;4.58;68.30;99280.41;5121035;28;20048;-37
2022/01/28 12:03:26;;;;;;;9.73;5.60;;;4.80;99.90;;;4.61;68.10;99286.31;5104534;28;20391;-37
2022/01/28 12:06:07;;;;;;;11.73;5.80;;;4.80;99.90;;;4.51;66.60;99306.22;5116158;28;20050;-37
2022/01/28 12:08:38;;;;;;;11.23;6.77;;;4.80;99.90;;;4.55;67.51;99297.22;5121040;28;20043;-37
2022/01/28 12:11:09;;;;;;;9.77;5.73;;;4.80;99.90;;;4.52;67.13;99292.13;5103743;28;20040;-37
2022/01/28 12:14:03;;;;;;;9.57;5.13;;;4.80;99.90;;;4.46;66.69;99288.03;5103379;28;20055;-37
2022/01/28 12:16:40;;;;;;;12.48;5.97;;;4.80;99.90;;;4.60;67.12;99289.06;5120168;28;20051;-37